Time;durP1;ratioP1;P1;durP2;ratioP2;P2;SDS_P1;SDS_P2;PMS_P1;PMS_P2;Temp;Humidity;BMP_temperature;BMP_pressure;BME280_temperature;BME280_humidity;BME280_pressure;Samples;Min_cycle;Max_cycle;Signal;HPM_P1;HPM_P2
2021/06/15 00:00:24;;;;;;;4.72;2.03;;;;;;;12.50;82.53;99061.22;3594721;40;20499;-58
2021/06/15 00:02:52;;;;;;;3.42;1.88;;;;;;;12.47;83.70;99064.97;3586774;40;20504;-58
2021/06/15 00:05:20;;;;;;;6.47;1.98;;;;;;;12.42;84.01;99064.59;3587208;40;20102;-58
2021/06/15 00:07:48;;;;;;;3.17;1.92;;;;;;;12.41;82.93;99062.94;3587107;40;20056;-59
2021/06/15 00:10:19;;;;;;;4.65;2.20;;;;;;;12.37;83.18;99051.13;3587379;40;20103;-56
2021/06/15 00:12:48;;;;;;;3.25;1.98;;;;;;;12.32;84.49;99044.69;3587302;40;20319;-58
2021/06/15 00:15:16;;;;;;;13.55;2.17;;;;;;;12.29;84.34;99041.38;3587223;40;20501;-58
2021/06/15 00:17:44;;;;;;;5.35;2.38;;;;;;;12.26;83.87;99041.69;3587395;40;20088;-59
2021/06/15 00:20:13;;;;;;;5.05;2.25;;;;;;;12.22;85.96;99037.72;3587236;40;20097;-58
2021/06/15 00:22:41;;;;;;;3.17;1.88;;;;;;;12.21;85.25;99025.59;3587316;40;20596;-58
2021/06/15 00:25:09;;;;;;;4.25;1.98;;;;;;;12.20;85.45;99020.47;3586679;40;20419;-58
2021/06/15 00:27:37;;;;;;;5.97;2.78;;;;;;;12.21;84.57;99011.66;3586044;40;20049;-58
2021/06/15 00:30:06;;;;;;;5.50;2.50;;;;;;;12.19;85.67;99006.56;3586951;40;20056;-58
2021/06/15 00:32:33;;;;;;;4.22;2.13;;;;;;;12.15;86.04;99002.59;3586838;40;20048;-58
2021/06/15 00:35:00;;;;;;;3.08;2.03;;;;;;;12.16;85.90;99000.81;3587188;40;20057;-58
2021/06/15 00:37:28;;;;;;;5.50;2.20;;;;;;;12.13;85.94;98994.06;3577645;40;20376;-58
2021/06/15 00:39:55;;;;;;;5.10;2.40;;;;;;;12.13;85.35;98980.13;3587139;40;20040;-58
2021/06/15 00:42:23;;;;;;;5.03;2.33;;;;;;;12.16;85.46;98969.38;3586669;40;20052;-58
2021/06/15 00:44:51;;;;;;;6.22;2.17;;;;;;;12.16;86.34;98972.81;3586946;40;20084;-58
2021/06/15 00:47:19;;;;;;;3.17;2.22;;;;;;;12.15;85.59;98968.50;3580845;40;20069;-57
2021/06/15 00:49:47;;;;;;;3.90;1.90;;;;;;;12.16;85.90;98957.09;3587458;40;20056;-57
2021/06/15 00:52:14;;;;;;;3.33;2.10;;;;;;;12.13;86.08;98957.38;3596494;40;20125;-58
2021/06/15 00:54:45;;;;;;;6.00;1.90;;;;;;;12.10;87.47;98934.09;3587202;40;20411;-57
2021/06/15 00:57:22;;;;;;;3.22;2.28;;;;;;;12.10;87.30;98926.22;3597334;40;20141;-56
2021/06/15 00:59:49;;;;;;;3.42;2.28;;;;;;;12.10;86.04;98920.16;3587454;40;20129;-57
2021/06/15 01:02:17;;;;;;;3.13;2.00;;;;;;;12.10;85.99;98910.50;3596932;40;20052;-57
2021/06/15 01:04:45;;;;;;;4.07;2.50;;;;;;;12.12;85.90;98905.94;3595565;40;20040;-58
2021/06/15 01:07:26;;;;;;;3.38;1.98;;;;;;;12.11;88.20;98893.81;3596624;40;20056;-57
2021/06/15 01:10:05;;;;;;;5.07;2.20;;;;;;;12.12;87.85;98882.34;3587325;40;20051;-58
2021/06/15 01:13:00;;;;;;;3.30;1.77;;;;;;;12.14;86.99;98869.91;3596817;40;20052;-56
2021/06/15 01:15:36;;;;;;;2.67;1.73;;;;;;;12.10;88.10;98857.25;3596882;40;20044;-58
2021/06/15 01:18:14;;;;;;;2.67;1.98;;;;;;;12.13;87.74;98849.91;3596645;40;20423;-54
2021/06/15 01:21:06;;;;;;;129.50;54.17;;;;;;;12.17;86.74;98856.50;3596738;40;20052;-59
2021/06/15 01:23:49;;;;;;;6.25;2.97;;;;;;;12.17;87.18;98853.88;3596186;40;20051;-55
2021/06/15 01:26:42;;;;;;;5.25;2.17;;;;;;;12.17;87.20;98850.44;3596548;40;20044;-56
2021/06/15 01:29:14;;;;;;;3.92;2.20;;;;;;;12.12;86.54;98831.75;3577172;40;20496;-55
2021/06/15 01:31:47;;;;;;;4.07;1.90;;;;;;;12.16;85.54;98815.53;3577232;40;20065;-56
2021/06/15 01:34:32;;;;;;;5.00;2.33;;;;;;;12.20;85.75;98826.53;3576732;40;20036;-56
2021/06/15 01:37:16;;;;;;;3.58;2.08;;;;;;;12.20;86.02;98811.63;3577063;40;20126;-57
2021/06/15 01:39:58;;;;;;;3.40;2.10;;;;;;;12.21;85.86;98802.78;3586682;40;20060;-57
2021/06/15 01:42:53;;;;;;;4.85;2.10;;;;;;;12.20;86.58;98802.94;3575500;40;20074;-57
2021/06/15 01:45:26;;;;;;;4.03;1.83;;;;;;;12.19;85.67;98790.81;3586668;40;20071;-58
2021/06/15 01:48:06;;;;;;;3.63;1.75;;;;;;;12.19;85.05;98780.31;3582845;40;20410;-53
2021/06/15 01:50:38;;;;;;;5.35;1.92;;;;;;;12.15;85.87;98779.00;3595609;40;20040;-56
2021/06/15 01:53:09;;;;;;;3.08;1.75;;;;;;;12.12;86.42;98767.03;3587053;40;20391;-57
2021/06/15 01:55:42;;;;;;;3.33;1.73;;;;;;;12.10;85.79;98768.97;3596460;40;20055;-58
2021/06/15 01:58:13;;;;;;;4.20;2.05;;;;;;;12.11;85.84;98754.09;3587214;40;20068;-58
2021/06/15 02:00:41;;;;;;;5.30;2.17;;;;;;;12.08;86.24;98752.59;3594938;40;20056;-57
2021/06/15 02:03:10;;;;;;;3.75;1.95;;;;;;;12.09;85.83;98742.94;3595401;40;20048;-57
2021/06/15 02:05:49;;;;;;;6.40;2.05;;;;;;;12.03;86.88;98745.22;3577155;40;20399;-55
2021/06/15 02:08:43;;;;;;;20.73;10.43;;;;;;;12.11;85.64;98739.19;3586186;40;20068;-56
2021/06/15 02:11:36;;;;;;;3.60;1.90;;;;;;;12.04;85.59;98728.50;3578822;40;20304;-58
2021/06/15 02:14:20;;;;;;;3.20;1.85;;;;;;;12.04;84.56;98733.75;3577036;40;20080;-53
2021/06/15 02:17:08;;;;;;;4.05;1.95;;;;;;;12.02;85.47;98730.47;3586268;40;20126;-57
2021/06/15 02:19:54;;;;;;;4.65;1.90;;;;;;;12.01;85.04;98714.88;3586516;40;20048;-57
2021/06/15 02:22:23;;;;;;;4.32;2.08;;;;;;;11.99;84.98;98704.56;3577041;40;20052;-56
2021/06/15 02:24:56;;;;;;;5.55;2.00;;;;;;;11.99;85.82;98707.19;3575274;40;20045;-56
2021/06/15 02:27:24;;;;;;;;;;;;;;;11.93;85.99;98705.22;3583913;40;20110;-57
2021/06/15 02:29:57;;;;;;;3.00;1.73;;;;;;;11.94;86.13;98701.59;3586285;40;19960;-54
2021/06/15 02:32:35;;;;;;;2.95;1.95;;;;;;;11.92;86.75;98697.53;3576669;40;20415;-52
2021/06/15 02:35:09;;;;;;;4.10;2.13;;;;;;;11.92;85.65;98700.13;3586454;40;20389;-56
2021/06/15 02:37:46;;;;;;;4.40;2.28;;;;;;;11.91;86.72;98701.91;3586054;40;20059;-57
2021/06/15 02:40:15;;;;;;;42.55;20.30;;;;;;;11.94;86.27;98698.16;3586423;40;20045;-59
2021/06/15 02:42:48;;;;;;;9.68;4.70;;;;;;;11.94;86.12;98690.31;3576919;40;20052;-52
2021/06/15 02:45:20;;;;;;;7.28;2.60;;;;;;;11.93;86.60;98668.53;3576849;40;20049;-55
2021/06/15 02:47:50;;;;;;;4.13;2.25;;;;;;;11.89;85.94;98661.97;3581935;40;20062;-54
2021/06/15 02:50:20;;;;;;;6.85;3.53;;;;;;;11.89;85.92;98654.09;3586427;40;20072;-57
2021/06/15 02:52:50;;;;;;;3.90;1.95;;;;;;;11.83;85.96;98646.88;3596124;40;20048;-55
2021/06/15 02:55:36;;;;;;;3.85;2.15;;;;;;;11.82;86.53;98639.13;3595979;40;20075;-56
2021/06/15 02:58:05;;;;;;;4.70;1.98;;;;;;;11.81;87.06;98643.56;3596267;40;20623;-54
2021/06/15 03:00:34;;;;;;;2.92;1.83;;;;;;;11.79;86.59;98621.94;3596182;40;20052;-51
2021/06/15 03:03:06;;;;;;;5.13;1.90;;;;;;;11.76;87.51;98615.22;3586286;40;20434;-56
2021/06/15 03:05:34;;;;;;;4.93;1.90;;;;;;;11.72;86.98;98594.75;3595834;40;20040;-56
2021/06/15 03:08:02;;;;;;;2.83;1.60;;;;;;;11.75;86.85;98591.81;3594974;40;20312;-58
2021/06/15 03:10:32;;;;;;;3.67;1.95;;;;;;;11.74;87.81;98580.53;3594518;40;20133;-58
2021/06/15 03:13:16;;;;;;;2.78;1.75;;;;;;;11.77;88.02;98580.22;3596023;40;20056;-55
2021/06/15 03:15:53;;;;;;;4.30;2.15;;;;;;;11.75;88.26;98581.34;3584062;40;20507;-55
2021/06/15 03:18:38;;;;;;;4.15;1.83;;;;;;;11.77;88.13;98580.22;3576519;40;20057;-56
2021/06/15 03:21:08;;;;;;;4.82;1.80;;;;;;;11.72;87.77;98579.84;3585900;40;20053;-59
2021/06/15 03:23:47;;;;;;;5.25;2.00;;;;;;;11.76;88.05;98562.84;3586204;40;20060;-59
2021/06/15 03:26:38;;;;;;;23.50;11.43;;;;;;;11.83;88.27;98560.44;3585398;40;20049;-55
2021/06/15 03:29:17;;;;;;;4.22;2.38;;;;;;;11.84;86.91;98550.78;3586235;40;20045;-59
2021/06/15 03:31:51;;;;;;;6.00;2.28;;;;;;;11.83;88.29;98554.38;3576181;40;20063;-57
2021/06/15 03:34:26;;;;;;;6.25;2.13;;;;;;;11.83;88.28;98547.34;3585847;40;20059;-57
2021/06/15 03:36:56;;;;;;;5.40;2.00;;;;;;;11.86;87.95;98533.91;3585822;40;20512;-59
2021/06/15 03:39:29;;;;;;;3.85;1.40;;;;;;;11.89;86.56;98533.59;3574351;40;20126;-58
2021/06/15 03:42:00;;;;;;;4.05;1.67;;;;;;;11.92;87.07;98529.84;3576446;40;20075;-61
2021/06/15 03:44:28;;;;;;;4.30;1.60;;;;;;;11.94;86.75;98518.22;3585503;40;20049;-58
2021/06/15 03:46:58;;;;;;;7.55;4.60;;;;;;;12.02;85.87;98517.41;3587073;40;20314;-58
2021/06/15 03:49:28;;;;;;;3.40;2.00;;;;;;;12.07;85.81;98491.53;3595682;40;20088;-60
2021/06/15 03:52:03;;;;;;;5.00;1.98;;;;;;;12.11;86.66;98465.84;3595692;40;20128;-61
2021/06/15 03:54:33;;;;;;;2.88;1.80;;;;;;;12.16;85.56;98472.22;3594758;40;20453;-58
2021/06/15 03:57:02;;;;;;;4.60;1.63;;;;;;;12.20;85.73;98502.38;3595730;40;20125;-59
2021/06/15 03:59:32;;;;;;;3.45;2.10;;;;;;;12.18;87.17;98506.94;3595389;40;20085;-58
2021/06/15 04:02:06;;;;;;;3.72;1.80;;;;;;;12.21;87.38;98496.13;3595992;40;20415;-58
2021/06/15 04:04:40;;;;;;;5.78;1.90;;;;;;;12.25;86.96;98489.59;3595586;39;20055;-58
2021/06/15 04:07:14;;;;;;;4.18;1.70;;;;;;;12.30;85.57;98486.47;3596858;40;20068;-59
2021/06/15 04:09:44;;;;;;;3.17;1.92;;;;;;;12.37;85.05;98473.50;3597278;40;20088;-60
2021/06/15 04:12:13;;;;;;;4.25;2.05;;;;;;;12.42;85.43;98474.66;3586866;40;20049;-59
2021/06/15 04:14:46;;;;;;;3.85;2.00;;;;;;;12.49;85.78;98461.72;3577628;40;20760;-60
2021/06/15 04:17:18;;;;;;;3.70;1.55;;;;;;;12.51;85.68;98459.72;3587022;40;20063;-57
2021/06/15 04:19:49;;;;;;;3.80;1.73;;;;;;;12.56;84.93;98447.75;3587178;40;20048;-57
2021/06/15 04:22:17;;;;;;;4.63;1.95;;;;;;;12.56;84.10;98445.13;3587136;40;20137;-58
2021/06/15 04:24:47;;;;;;;3.60;2.05;;;;;;;12.60;85.19;98453.47;3586918;40;20049;-59
2021/06/15 04:27:21;;;;;;;7.35;2.00;;;;;;;12.59;85.63;98443.16;3587062;40;20056;-59
2021/06/15 04:29:49;;;;;;;8.20;2.10;;;;;;;12.63;86.04;98439.19;3587164;40;20056;-59
2021/06/15 04:32:21;;;;;;;4.57;2.20;;;;;;;12.64;85.00;98436.44;3586937;40;20045;-59
2021/06/15 04:34:55;;;;;;;8.23;2.10;;;;;;;12.65;84.62;98432.81;3587086;40;20060;-58
2021/06/15 04:37:25;;;;;;;4.55;1.60;;;;;;;12.70;84.24;98427.06;3577861;40;20419;-59
2021/06/15 04:39:57;;;;;;;4.35;1.90;;;;;;;12.73;83.83;98424.13;3584872;40;20045;-59
2021/06/15 04:42:51;;;;;;;4.88;1.83;;;;;;;12.74;84.28;98421.31;3587105;40;20041;-59
2021/06/15 04:45:23;;;;;;;6.20;2.05;;;;;;;12.76;84.12;98411.47;3586947;40;20044;-59
2021/06/15 04:48:04;;;;;;;3.92;2.25;;;;;;;12.79;84.58;98403.25;3582573;40;20173;-58
2021/06/15 04:50:32;;;;;;;5.05;1.95;;;;;;;12.80;83.62;98401.44;3597188;40;20076;-58
2021/06/15 04:53:03;;;;;;;3.20;2.10;;;;;;;12.83;83.78;98411.63;3596837;40;20059;-59
2021/06/15 04:55:37;;;;;;;4.90;2.40;;;;;;;12.86;82.59;98399.94;3593582;40;20096;-59
2021/06/15 04:58:08;;;;;;;5.50;2.15;;;;;;;12.97;83.03;98396.97;3587310;40;20097;-57
2021/06/15 05:00:38;;;;;;;8.07;2.13;;;;;;;12.99;81.45;98401.03;3596614;40;20048;-58
2021/06/15 05:03:06;;;;;;;7.30;2.45;;;;;;;13.03;83.25;98391.03;3596781;40;20056;-58
2021/06/15 05:05:34;;;;;;;4.00;2.15;;;;;;;13.03;82.57;98393.66;3596842;40;20024;-58
2021/06/15 05:08:08;;;;;;;4.05;1.60;;;;;;;13.05;82.99;98400.38;3596458;40;20048;-59
2021/06/15 05:10:38;;;;;;;3.30;1.90;;;;;;;13.00;82.36;98391.34;3597068;40;20092;-59
2021/06/15 05:13:10;;;;;;;3.90;1.85;;;;;;;13.08;80.83;98400.00;3596894;40;20051;-59
2021/06/15 05:15:44;;;;;;;3.80;1.83;;;;;;;13.11;81.73;98405.91;3596865;40;20051;-60
2021/06/15 05:18:12;;;;;;;5.82;2.20;;;;;;;13.11;82.13;98403.28;3596797;39;20051;-59
2021/06/15 05:20:39;;;;;;;7.10;3.17;;;;;;;13.15;82.48;98396.69;3596529;40;20048;-58
2021/06/15 05:23:34;;;;;;;3.70;1.90;;;;;;;13.20;82.66;98387.31;3584596;40;20056;-59
2021/06/15 05:26:01;;;;;;;4.20;1.92;;;;;;;13.37;83.55;98382.81;3586750;40;20149;-60
2021/06/15 05:28:29;;;;;;;4.80;1.83;;;;;;;13.62;82.43;98372.13;3586877;40;20049;-60
2021/06/15 05:30:56;;;;;;;5.03;2.50;;;;;;;13.80;81.16;98360.31;3586816;40;20052;-59
2021/06/15 05:33:24;;;;;;;5.53;2.75;;;;;;;13.98;81.53;98353.94;3586211;40;20059;-59
2021/06/15 05:35:51;;;;;;;3.90;2.17;;;;;;;14.18;79.01;98354.22;3586624;40;20060;-59
2021/06/15 05:38:18;;;;;;;8.10;2.00;;;;;;;14.33;78.95;98334.81;3586563;40;20060;-58
2021/06/15 05:40:47;;;;;;;6.28;2.00;;;;;;;14.60;78.22;98322.88;3586463;40;20419;-59
2021/06/15 05:43:16;;;;;;;4.93;1.88;;;;;;;14.73;77.66;98306.44;3586516;40;20061;-59
2021/06/15 05:45:43;;;;;;;6.47;1.73;;;;;;;14.78;75.17;98300.63;3586502;40;20064;-58
2021/06/15 05:48:11;;;;;;;4.40;1.80;;;;;;;14.94;76.75;98296.94;3593305;40;20044;-60
2021/06/15 05:50:39;;;;;;;4.13;1.58;;;;;;;15.11;74.75;98307.06;3596196;40;20428;-61
2021/06/15 05:53:06;;;;;;;5.57;1.60;;;;;;;15.36;75.20;98302.22;3596631;40;20056;-61
2021/06/15 05:55:33;;;;;;;3.95;1.67;;;;;;;15.49;73.85;98301.53;3596553;40;20466;-59
2021/06/15 05:58:01;;;;;;;4.50;1.58;;;;;;;15.35;74.39;98284.78;3587178;40;20411;-59
2021/06/15 06:00:29;;;;;;;30.70;14.02;;;;;;;15.32;72.59;98302.78;3594189;40;20083;-59
2021/06/15 06:02:57;;;;;;;3.60;1.63;;;;;;;15.35;73.06;98294.50;3596693;40;20097;-60
2021/06/15 06:08:11;;;;;;;5.10;1.55;;;;;;;15.32;71.50;98272.00;3596464;40;20059;-59
2021/06/15 06:10:39;;;;;;;5.00;1.30;;;;;;;15.18;69.38;98280.78;3596218;40;20056;-58
2021/06/15 06:13:11;;;;;;;5.25;1.80;;;;;;;15.28;68.39;98264.66;3595878;40;20059;-59
2021/06/15 06:15:40;;;;;;;3.60;1.20;;;;;;;15.50;68.83;98255.72;3596246;40;21191;-59
2021/06/15 06:18:11;;;;;;;6.43;1.40;;;;;;;15.72;69.11;98242.56;3596403;40;20263;-58
2021/06/15 06:20:40;;;;;;;6.35;1.77;;;;;;;15.82;68.11;98243.84;3595968;40;20048;-59
2021/06/15 06:23:08;;;;;;;7.70;1.52;;;;;;;15.69;67.01;98258.75;3596328;40;20067;-60
2021/06/15 06:25:36;;;;;;;9.35;1.80;;;;;;;15.58;65.73;98234.53;3596125;40;20051;-61
2021/06/15 06:28:04;;;;;;;6.25;1.33;;;;;;;15.40;67.45;98243.91;3595937;40;20059;-60
2021/06/15 06:30:33;;;;;;;2.55;1.20;;;;;;;15.40;66.55;98226.28;3592622;40;20048;-59
2021/06/15 06:33:00;;;;;;;4.55;1.88;;;;;;;15.37;67.54;98219.56;3596524;40;20048;-60
2021/06/15 06:35:28;;;;;;;37.35;17.33;;;;;;;15.24;65.87;98222.09;3596800;40;20056;-58
2021/06/15 06:37:55;;;;;;;9.15;1.83;;;;;;;15.20;65.42;98217.41;3595789;40;20437;-59
2021/06/15 06:40:23;;;;;;;4.20;1.65;;;;;;;15.18;66.30;98225.47;3596250;40;20354;-60
2021/06/15 06:42:51;;;;;;;7.85;1.35;;;;;;;15.09;67.68;98210.81;3596145;40;20150;-60
2021/06/15 06:45:19;;;;;;;8.90;1.70;;;;;;;15.03;65.20;98195.78;3595915;40;20094;-58
2021/06/15 06:47:47;;;;;;;3.92;1.48;;;;;;;14.97;66.72;98178.13;3581903;40;20048;-59
2021/06/15 06:50:15;;;;;;;6.53;1.25;;;;;;;14.94;64.79;98187.19;3596357;40;20058;-59
2021/06/15 06:52:42;;;;;;;4.22;1.10;;;;;;;14.91;66.30;98189.38;3596095;40;20064;-59
2021/06/15 06:55:10;;;;;;;4.05;1.13;;;;;;;14.94;65.22;98175.84;3586567;40;20092;-58
2021/06/15 06:57:37;;;;;;;3.88;1.50;;;;;;;14.93;64.96;98188.19;3586170;40;20248;-60
2021/06/15 07:00:05;;;;;;;7.75;2.22;;;;;;;14.87;65.92;98175.81;3586155;40;20076;-59
2021/06/15 07:02:33;;;;;;;4.80;1.35;;;;;;;14.81;66.01;98181.81;3586281;40;20134;-63
2021/06/15 07:05:00;;;;;;;6.88;2.38;;;;;;;14.68;65.54;98190.41;3585923;40;20068;-60
2021/06/15 07:07:27;;;;;;;8.90;1.95;;;;;;;14.72;66.60;98191.66;3586158;40;20052;-61
2021/06/15 07:09:55;;;;;;;4.13;1.27;;;;;;;14.72;66.62;98193.47;3586090;40;20061;-60
2021/06/15 07:12:22;;;;;;;9.15;1.80;;;;;;;14.65;67.07;98214.44;3586038;40;20284;-62
2021/06/15 07:14:50;;;;;;;4.18;1.13;;;;;;;14.65;66.99;98217.06;3590698;40;20318;-60
2021/06/15 07:17:17;;;;;;;2.90;1.35;;;;;;;14.63;66.05;98250.66;3595883;40;20441;-59
2021/06/15 07:19:44;;;;;;;2.90;1.00;;;;;;;14.60;64.90;98251.03;3595649;40;20310;-61
2021/06/15 07:22:12;;;;;;;5.78;1.30;;;;;;;14.53;64.48;98242.25;3595862;40;20052;-61
2021/06/15 07:24:39;;;;;;;33.85;13.73;;;;;;;14.65;64.25;98243.38;3586008;40;20037;-65
2021/06/15 07:27:06;;;;;;;8.27;1.45;;;;;;;14.79;61.85;98257.50;3576498;40;20049;-60
2021/06/15 07:29:34;;;;;;;8.35;1.55;;;;;;;15.08;57.28;98253.94;3585881;40;20423;-60
2021/06/15 07:32:02;;;;;;;4.05;0.52;;;;;;;14.96;57.89;98287.88;3585644;40;20348;-60
2021/06/15 07:34:30;;;;;;;2.97;0.68;;;;;;;15.05;57.46;98273.59;3585620;40;20057;-60
2021/06/15 07:36:57;;;;;;;11.48;0.80;;;;;;;14.83;58.72;98292.97;3585789;40;20057;-60
2021/06/15 07:39:25;;;;;;;5.40;0.70;;;;;;;14.66;58.69;98302.09;3585851;40;20060;-59
2021/06/15 07:41:56;;;;;;;6.53;0.93;;;;;;;14.47;60.97;98288.47;3587018;40;20060;-59
2021/06/15 07:44:23;;;;;;;7.35;0.50;;;;;;;14.36;58.61;98312.63;3587056;40;20173;-63
2021/06/15 07:46:50;;;;;;;19.73;8.05;;;;;;;14.23;60.41;98301.91;3588540;40;20060;-59
2021/06/15 07:49:18;;;;;;;4.05;0.70;;;;;;;14.23;60.61;98318.50;3597169;40;20148;-59
2021/06/15 07:51:45;;;;;;;6.50;0.50;;;;;;;14.00;61.12;98323.81;3584985;40;20137;-62
2021/06/15 07:54:33;;;;;;;3.83;0.60;;;;;;;13.89;60.91;98357.63;3586788;40;20040;-58
2021/06/15 07:57:00;;;;;;;5.90;0.50;;;;;;;13.71;60.34;98358.75;3587196;40;20101;-59
2021/06/15 07:59:28;;;;;;;5.13;0.50;;;;;;;13.54;61.50;98350.19;3587599;40;20072;-60
2021/06/15 08:01:55;;;;;;;5.63;0.60;;;;;;;13.52;60.52;98360.03;3587383;40;20315;-60
2021/06/15 08:04:25;;;;;;;3.60;0.60;;;;;;;13.46;61.31;98354.69;3586978;40;20049;-60
2021/06/15 08:06:53;;;;;;;3.35;0.50;;;;;;;13.44;62.04;98360.13;3587023;40;20063;-59
2021/06/15 08:09:20;;;;;;;5.00;0.60;;;;;;;13.40;63.44;98368.53;3587268;40;20052;-58
2021/06/15 08:11:48;;;;;;;2.63;0.40;;;;;;;13.28;63.56;98376.78;3586847;40;20055;-59
2021/06/15 08:14:15;;;;;;;4.72;0.50;;;;;;;13.21;62.48;98373.22;3587294;40;20049;-60
2021/06/15 08:16:42;;;;;;;6.82;0.80;;;;;;;13.07;64.31;98381.81;3587130;40;20048;-59
2021/06/15 08:19:10;;;;;;;10.07;0.63;;;;;;;12.93;63.84;98385.16;3578007;40;20049;-60
2021/06/15 08:21:37;;;;;;;11.52;0.65;;;;;;;12.87;63.83;98388.47;3586827;40;20415;-58
2021/06/15 08:24:06;;;;;;;5.05;0.30;;;;;;;12.90;65.20;98409.94;3587125;40;20056;-61
2021/06/15 08:26:33;;;;;;;10.13;4.18;;;;;;;12.93;64.86;98421.91;3587037;40;20065;-59
2021/06/15 08:29:00;;;;;;;4.40;0.63;;;;;;;12.77;64.14;98439.34;3587048;40;20137;-59
2021/06/15 08:31:28;;;;;;;8.68;1.27;;;;;;;12.76;65.17;98429.00;3587052;40;20130;-59
2021/06/15 08:33:56;;;;;;;10.88;0.93;;;;;;;12.80;64.90;98427.69;3587475;40;20110;-60
2021/06/15 08:36:23;;;;;;;3.17;0.38;;;;;;;12.77;64.76;98444.59;3587066;40;20453;-60
2021/06/15 08:38:51;;;;;;;2.42;0.40;;;;;;;12.89;64.51;98450.28;3586728;40;20411;-60
2021/06/15 08:41:19;;;;;;;7.47;0.60;;;;;;;12.78;66.06;98440.97;3584847;40;20053;-61
2021/06/15 08:43:47;;;;;;;3.55;0.30;;;;;;;12.73;65.89;98438.03;3586943;40;20075;-58
2021/06/15 08:46:15;;;;;;;4.47;0.40;;;;;;;12.71;66.23;98440.00;3587073;40;20411;-59
2021/06/15 08:48:44;;;;;;;1.77;0.40;;;;;;;12.76;65.48;98442.13;3595692;40;20063;-60
2021/06/15 08:51:11;;;;;;;6.13;0.30;;;;;;;12.76;67.35;98450.00;3596535;39;20125;-65
2021/06/15 08:53:39;;;;;;;142.60;62.35;;;;;;;12.70;67.47;98446.25;3596710;40;20062;-59
2021/06/15 08:56:32;;;;;;;9.05;3.60;;;;;;;12.76;70.55;98473.59;3596700;40;20484;-60
2021/06/15 08:59:19;;;;;;;1.52;0.43;;;;;;;12.35;72.28;98481.56;3596811;40;20093;-59
2021/06/15 09:02:08;;;;;;;5.50;0.30;;;;;;;12.24;72.98;98480.06;3596950;40;20036;-59
2021/06/15 09:04:36;;;;;;;2.35;0.30;;;;;;;12.24;75.03;98489.72;3596787;40;20048;-58
2021/06/15 09:07:04;;;;;;;5.10;0.47;;;;;;;12.07;78.39;98494.16;3597063;40;20052;-59
2021/06/15 09:09:45;;;;;;;74.72;29.15;;;;;;;11.82;80.78;98508.16;3596723;40;20056;-60
2021/06/15 09:12:15;;;;;;;4.03;1.67;;;;;;;11.85;80.24;98508.69;3596642;40;20064;-59
2021/06/15 09:14:47;;;;;;;2.20;0.40;;;;;;;11.73;82.33;98509.97;3596697;40;20064;-59
2021/06/15 09:17:28;;;;;;;4.25;0.88;;;;;;;11.60;81.55;98535.78;3587414;40;20149;-59
2021/06/15 09:20:07;;;;;;;0.43;0.20;;;;;;;11.69;81.73;98521.75;3596799;40;20059;-62
2021/06/15 09:22:35;;;;;;;1.58;0.43;;;;;;;11.66;81.57;98537.75;3596558;40;20051;-58
2021/06/15 09:25:05;;;;;;;3.33;0.40;;;;;;;11.66;80.03;98543.00;3586224;40;20044;-59
2021/06/15 09:27:34;;;;;;;0.75;0.25;;;;;;;11.64;78.91;98545.78;3588225;40;20056;-59
2021/06/15 09:30:13;;;;;;;1.05;0.40;;;;;;;11.68;80.93;98567.22;3596924;40;20807;-59
2021/06/15 09:32:43;;;;;;;0.70;0.30;;;;;;;11.79;80.14;98572.19;3596971;40;20075;-59
2021/06/15 09:35:20;;;;;;;1.20;0.30;;;;;;;11.99;80.11;98570.94;3592262;40;20051;-59
2021/06/15 09:37:57;;;;;;;3.45;0.65;;;;;;;12.15;79.76;98595.53;3586532;40;20052;-59
2021/06/15 09:40:25;;;;;;;1.02;0.52;;;;;;;12.12;79.49;98598.50;3586734;40;20400;-62
2021/06/15 09:43:06;;;;;;;6.90;1.08;;;;;;;12.05;79.50;98619.25;3586602;40;20751;-59
2021/06/15 09:45:38;;;;;;;2.65;0.30;;;;;;;12.03;79.17;98623.84;3586690;40;20057;-60
2021/06/15 09:48:26;;;;;;;3.65;0.30;;;;;;;12.03;79.84;98635.16;3592773;40;20047;-60
2021/06/15 09:51:11;;;;;;;0.50;0.25;;;;;;;11.86;81.12;98637.88;3596056;40;20074;-59
2021/06/15 09:53:45;;;;;;;1.05;0.30;;;;;;;11.59;81.62;98646.75;3596680;40;20067;-60
2021/06/15 09:56:15;;;;;;;0.20;0.20;;;;;;;11.47;82.82;98661.88;3584769;40;20090;-60
2021/06/15 09:58:54;;;;;;;0.68;0.35;;;;;;;11.41;83.52;98668.56;3586492;40;20060;-62
2021/06/15 10:01:33;;;;;;;1.88;0.40;;;;;;;11.30;84.12;98674.06;3576987;40;20321;-59
2021/06/15 10:04:16;;;;;;;27.63;13.40;;;;;;;11.23;83.28;98676.47;3585809;40;20052;-62
2021/06/15 10:06:49;;;;;;;15.48;7.45;;;;;;;11.15;85.00;98686.06;3586501;40;20051;-58
2021/06/15 10:09:24;;;;;;;4.88;1.00;;;;;;;11.08;85.34;98704.16;3586552;40;20307;-60
2021/06/15 10:11:57;;;;;;;11.65;0.43;;;;;;;11.07;84.41;98713.00;3586440;40;20052;-60
2021/06/15 10:14:26;;;;;;;;;;;;;;;11.14;85.05;98719.25;3586798;40;20051;-55
2021/06/15 10:16:54;;;;;;;6.50;1.13;;;;;;;11.49;86.55;98718.38;3586490;40;20494;-59
2021/06/15 10:19:23;;;;;;;0.45;0.30;;;;;;;11.56;83.94;98731.66;3586543;40;20444;-63
2021/06/15 10:21:52;;;;;;;2.83;0.30;;;;;;;11.56;82.30;98739.50;3586453;40;20053;-60
2021/06/15 10:24:24;;;;;;;4.22;0.38;;;;;;;11.56;77.56;98733.47;3586095;40;20103;-58
2021/06/15 10:27:02;;;;;;;6.00;0.45;;;;;;;11.65;77.90;98737.78;3586215;40;20072;-59
2021/06/15 10:29:30;;;;;;;2.50;0.40;;;;;;;11.77;77.54;98747.00;3586166;40;20052;-59
2021/06/15 10:32:07;;;;;;;1.70;0.40;;;;;;;11.84;77.69;98758.53;3585932;40;20048;-59
2021/06/15 10:34:47;;;;;;;2.03;0.50;;;;;;;11.72;75.12;98750.06;3586307;40;20060;-60
2021/06/15 10:37:37;;;;;;;0.85;0.40;;;;;;;11.89;75.04;98761.50;3586248;40;20049;-58
2021/06/15 10:40:13;;;;;;;2.03;0.40;;;;;;;11.99;75.16;98766.63;3584593;40;20076;-59
2021/06/15 10:42:42;;;;;;;3.70;0.45;;;;;;;11.94;73.48;98774.16;3586332;40;20041;-57
2021/06/15 10:45:13;;;;;;;0.45;0.30;;;;;;;11.94;72.66;98787.25;3585851;40;20088;-59
2021/06/15 10:48:00;;;;;;;1.17;0.40;;;;;;;11.99;73.87;98791.03;3590902;40;20059;-57
2021/06/15 10:50:47;;;;;;;442.65;269.83;;;;;;;12.36;73.75;98805.66;3596076;40;21180;-58
2021/06/15 10:53:16;;;;;;;7.38;2.58;;;;;;;12.60;71.71;98799.66;3596065;40;20407;-57
2021/06/15 10:55:46;;;;;;;4.40;0.80;;;;;;;12.82;70.25;98796.47;3596217;40;20063;-58
2021/06/15 10:58:14;;;;;;;0.90;0.30;;;;;;;13.37;67.84;98794.25;3586583;40;20097;-58
2021/06/15 11:00:46;;;;;;;4.30;0.52;;;;;;;14.00;66.23;98801.41;3588891;40;20314;-58
2021/06/15 11:03:17;;;;;;;2.78;0.57;;;;;;;14.84;65.97;98798.13;3595640;40;20610;-58
2021/06/15 11:05:56;;;;;;;4.95;0.70;;;;;;;15.54;63.52;98796.34;3595124;40;20051;-58
2021/06/15 11:08:31;;;;;;;4.20;0.70;;;;;;;15.85;61.31;98812.06;3595840;40;20052;-59
2021/06/15 11:11:05;;;;;;;2.97;0.50;;;;;;;15.05;58.92;98808.06;3596051;40;20327;-58
2021/06/15 11:13:41;;;;;;;2.17;0.50;;;;;;;14.59;60.26;98823.78;3596247;40;20296;-60
2021/06/15 11:16:43;;;;;;;4.38;0.40;;;;;;;14.48;59.77;98833.81;3597176;39;20048;-58
2021/06/15 11:19:11;;;;;;;6.50;0.90;;;;;;;14.31;61.61;98848.81;3586116;40;20052;-58
2021/06/15 11:21:48;;;;;;;2.33;0.40;;;;;;;13.93;61.35;98845.13;3597838;40;20067;-58
2021/06/15 11:24:25;;;;;;;5.82;1.02;;;;;;;13.85;62.20;98861.72;3587773;40;20068;-58
2021/06/15 11:26:58;;;;;;;2.45;0.50;;;;;;;13.96;62.85;98858.75;3597338;40;20063;-59
2021/06/15 11:29:38;;;;;;;5.15;0.57;;;;;;;14.00;63.15;98861.84;3597119;40;20055;-59
2021/06/15 11:32:28;;;;;;;1.98;0.55;;;;;;;14.43;63.38;98857.16;3597414;40;20044;-57
2021/06/15 11:35:02;;;;;;;2.40;0.50;;;;;;;15.11;63.18;98841.59;3597230;40;20425;-59
2021/06/15 11:37:51;;;;;;;2.22;0.60;;;;;;;15.95;61.55;98846.06;3597243;40;20063;-58
2021/06/15 11:40:34;;;;;;;0.63;0.50;;;;;;;16.29;55.67;98838.47;3597406;40;20056;-57
2021/06/15 11:43:07;;;;;;;1.10;0.50;;;;;;;16.33;50.97;98838.91;3597369;40;20052;-59
2021/06/15 11:45:37;;;;;;;2.95;0.47;;;;;;;16.53;54.74;98855.84;3596837;40;20048;-58
2021/06/15 11:48:34;;;;;;;4.75;0.40;;;;;;;15.94;54.41;98837.34;3590803;40;20133;-58
2021/06/15 11:51:08;;;;;;;2.20;0.50;;;;;;;15.62;53.61;98854.25;3587292;40;20157;-58
2021/06/15 11:53:39;;;;;;;2.58;0.50;;;;;;;16.06;57.71;98872.03;3587201;40;20088;-58
2021/06/15 11:56:11;;;;;;;6.28;0.75;;;;;;;15.79;54.56;98874.22;3587628;40;20315;-59
2021/06/15 11:58:43;;;;;;;9.13;2.17;;;;;;;15.37;56.25;98870.22;3587317;40;20059;-58